Airfield :
LOGIN :

Register | Disclaimer

   EN    FR    IT 

 










Legend :    VFR   Marginal VFR   IFR   Intensive IFR   Very Intensive IFR
Visi :
Ceiling :
>= 8 km
>= 3000ft
5 to 8 km
1000 to 3000 ft
1500m to 5 km
500 to 1000 ft
800 to 1500m
200 to 500 ft
< 800m
< 200 ft
Symbols :   Thunderstorms  Fog  Heavy snow  Heavy precipitations  Wind > 20 kt
SIGMETs :     Misc.  Thunderstorms  Icing  Turbulence  Mountain Waves  Volcanic Ashes






- Airport Elevation : 17 ft
- IATA code : GRQ


EHGG - Groningen Eelde

CURRENT METAR :
  • 180525Z AUTO 24016KT 210V270 9999 FEW027 SCT032 05/02 Q1013 NOSIG

EXPIRED METARs :
  • 180455Z AUTO 25015KT 220V280 9999 FEW026 05/02 Q1013 NOSIG
  • 180425Z AUTO 25014KT 9999 FEW032 SCT037 06/02 Q1013
  • 180355Z AUTO 25014KT 220V280 9999 NCD 05/02 Q1013
  • 180325Z AUTO 25017KT 220V280 9999 NCD 06/02 Q1013
  • 180255Z AUTO 25017KT 220V280 9999 SCT021 SCT025 BKN028 07/03 Q1013

TAF TAF EHGG
Valid from the 18 at 06:00 until the 19 at 12:00 UTC


180518Z 1806/1912 25015KT 9999 SCT035
BECMG 1809/1812 25017G27KT
PROB30
TEMPO 1811/1823 6000 SHRA FEW020CB
BECMG 1815/1818 21017KT
BECMG 1821/1823 23020G30KT 6000 RA BKN014
TEMPO 1823/1902 25025G35KT 4000 RA SHRA BKN009 SCT015CB
BECMG 1900/1902 28014KT 9999 NSW BKN020
PROB40
TEMPO 1902/1912 29018G28KT 4000 SHRA SHRAGS SCT015CB



MET'MAP, your aeronautical weather chart ! - Copyright ORBIFLY December 2007 - Disclaimer

ORBIFLY MET'MAP TEAM :

Programming & Development : Alexandra Zaïnal
Concept & original design : Baudouin d'Aumeries
Assistance for programming : Marc-Olivier Méhu
Technical & hardware support : Manuel Goepfert

Contact : metmap@orbifly.com




SOURCES & CREDITS :

   NOAA